createdAt,value
2023-03-22T00:01:08.763Z,35.47
2023-03-22T00:06:11.716Z,35.78
2023-03-22T00:11:15.986Z,35.50
2023-03-22T00:16:19.703Z,34.42
2023-03-22T00:21:22.704Z,35.20
2023-03-22T00:26:26.948Z,34.28
2023-03-22T00:31:29.988Z,35.17
2023-03-22T00:36:33.067Z,35.17
2023-03-22T00:41:37.435Z,35.28
2023-03-22T00:46:41.598Z,34.47
2023-03-22T00:51:44.601Z,34.35
2023-03-22T00:56:49.945Z,35.22
2023-03-22T01:01:53.441Z,34.47
2023-03-22T01:06:59.361Z,34.40
2023-03-22T01:12:03.675Z,34.80
2023-03-22T01:17:07.442Z,35.20
2023-03-22T01:22:10.419Z,34.60
2023-03-22T01:27:14.814Z,35.00
2023-03-22T01:32:17.736Z,34.60
2023-03-22T01:37:21.959Z,34.40
2023-03-22T01:42:27.425Z,34.75
2023-03-22T01:47:33.031Z,34.53
2023-03-22T01:52:37.618Z,34.75
2023-03-22T01:57:49.832Z,35.10
2023-03-22T02:03:00.374Z,34.20
2023-03-22T02:08:10.554Z,35.33
2023-03-22T02:13:56.087Z,34.42
2023-03-22T02:19:59.035Z,34.58
2023-03-22T02:25:40.884Z,34.25
2023-03-22T02:31:19.474Z,34.40
2023-03-22T02:36:49.284Z,34.47
2023-03-22T02:42:12.106Z,34.53
2023-03-22T02:47:22.834Z,34.53
2023-03-22T02:52:33.326Z,34.58
2023-03-22T02:57:42.982Z,35.22
2023-03-22T03:02:51.125Z,35.17
2023-03-22T03:07:59.431Z,35.00
2023-03-22T03:13:04.991Z,34.28
2023-03-22T03:18:22.948Z,34.78
2023-03-22T03:23:34.286Z,34.53
2023-03-22T03:28:46.738Z,34.95
2023-03-22T03:33:55.515Z,34.42
2023-03-22T03:39:00.959Z,34.92
2023-03-22T03:44:06.116Z,35.22
2023-03-22T03:49:11.540Z,34.28
2023-03-22T03:54:14.400Z,34.53
2023-03-22T03:59:20.844Z,34.67
2023-03-22T04:04:28.181Z,34.33
2023-03-22T04:09:38.554Z,34.28
2023-03-22T04:15:10.711Z,35.38
2023-03-22T04:20:15.208Z,34.45
2023-03-22T04:25:18.969Z,35.33
2023-03-22T04:30:37.283Z,34.70
2023-03-22T04:36:05.544Z,34.17
2023-03-22T04:41:15.451Z,37.05
2023-03-22T04:46:24.277Z,34.38
2023-03-22T04:51:35.727Z,34.42
2023-03-22T04:56:50.231Z,34.10
2023-03-22T05:01:56.447Z,34.60
2023-03-22T05:07:02.717Z,34.15
2023-03-22T05:12:17.499Z,34.53
2023-03-22T05:17:26.740Z,34.65
2023-03-22T05:22:34.578Z,35.13
2023-03-22T05:27:38.964Z,34.85
2023-03-22T05:33:06.117Z,35.55
2023-03-22T05:38:15.570Z,37.47
2023-03-22T05:43:23.356Z,35.50
2023-03-22T05:48:28.605Z,34.65
2023-03-22T05:53:33.026Z,34.15
2023-03-22T05:58:43.645Z,33.92
2023-03-22T06:03:50.976Z,34.22
2023-03-22T06:09:20.232Z,34.35
2023-03-22T06:14:27.077Z,34.25
2023-03-22T06:19:52.933Z,33.90
2023-03-22T06:24:56.290Z,33.95
2023-03-22T06:30:10.061Z,33.78
2023-03-22T06:35:30.922Z,34.22
2023-03-22T06:40:35.665Z,34.00
2023-03-22T06:45:38.836Z,34.47
2023-03-22T06:50:45.992Z,34.50
2023-03-22T06:55:54.945Z,34.10
2023-03-22T07:01:00.024Z,34.03
2023-03-22T07:06:08.878Z,33.90
2023-03-22T07:11:15.428Z,34.40
2023-03-22T07:16:22.767Z,34.08
2023-03-22T07:21:33.373Z,34.20
2023-03-22T07:26:43.751Z,34.63
2023-03-22T07:31:52.011Z,34.58
2023-03-22T07:37:03.060Z,34.33
2023-03-22T07:42:06.787Z,34.42
2023-03-22T07:47:27.183Z,34.42
2023-03-22T07:52:51.754Z,34.45
2023-03-22T07:57:55.006Z,34.67
2023-03-22T08:02:58.662Z,34.53
2023-03-22T08:08:26.406Z,34.30
2023-03-22T08:13:29.541Z,34.38
2023-03-22T08:18:32.868Z,34.58
2023-03-22T08:23:42.192Z,34.45
2023-03-22T08:29:11.282Z,34.83
2023-03-22T08:34:14.333Z,34.30
2023-03-22T08:39:18.605Z,34.53
2023-03-22T08:44:31.937Z,35.13
2023-03-22T08:49:36.712Z,34.38
2023-03-22T08:54:48.929Z,34.33
2023-03-22T09:00:12.003Z,34.53
2023-03-22T09:05:24.348Z,34.78
2023-03-22T09:10:29.949Z,34.63
2023-03-22T09:15:32.986Z,35.20
2023-03-22T09:20:58.905Z,35.28
2023-03-22T09:26:10.008Z,35.42
2023-03-22T09:31:14.312Z,35.20
2023-03-22T09:36:17.560Z,35.05
2023-03-22T09:41:26.217Z,35.22
2023-03-22T09:46:32.923Z,35.08
2023-03-22T09:51:41.830Z,34.88
2023-03-22T09:56:49.197Z,34.92
2023-03-22T10:01:57.606Z,34.85
2023-03-22T10:07:08.027Z,35.20
2023-03-22T10:12:19.569Z,34.65
2023-03-22T10:17:27.402Z,35.38
2023-03-22T10:22:34.035Z,35.35
2023-03-22T10:27:38.685Z,35.15
2023-03-22T10:32:57.105Z,35.05
2023-03-22T10:38:04.331Z,35.35
2023-03-22T10:43:15.350Z,35.05
2023-03-22T10:48:26.242Z,35.42
2023-03-22T10:53:39.265Z,35.28
2023-03-22T10:58:43.916Z,35.42
2023-03-22T11:03:50.501Z,35.22
2023-03-22T11:08:55.892Z,35.30
2023-03-22T11:14:07.639Z,35.75
2023-03-22T11:19:15.827Z,35.55
2023-03-22T11:24:21.544Z,36.38
2023-03-22T11:29:25.961Z,35.53
2023-03-22T11:34:33.771Z,35.78
2023-03-22T11:39:36.670Z,35.55
2023-03-22T11:44:40.848Z,35.38
2023-03-22T11:49:48.089Z,35.45
2023-03-22T11:54:52.481Z,35.63
2023-03-22T12:00:01.662Z,36.15
2023-03-22T12:05:10.253Z,36.17
2023-03-22T12:10:17.928Z,35.88
2023-03-22T12:15:24.792Z,36.33
2023-03-22T12:20:37.424Z,35.97
2023-03-22T12:25:44.268Z,35.97
2023-03-22T12:30:52.239Z,36.10
2023-03-22T12:35:59.321Z,36.65
2023-03-22T12:41:06.964Z,37.40
2023-03-22T12:46:18.972Z,36.58
2023-03-22T12:51:21.917Z,36.40
2023-03-22T12:56:29.714Z,37.05
2023-03-22T13:01:40.710Z,36.35
2023-03-22T13:06:57.795Z,36.20
2023-03-22T13:12:29.317Z,36.08
2023-03-22T13:17:45.162Z,36.63
2023-03-22T13:23:04.048Z,36.83
2023-03-22T13:28:26.226Z,36.50
2023-03-22T13:33:32.587Z,37.28
2023-03-22T13:38:37.597Z,36.65
2023-03-22T13:43:50.035Z,36.58
2023-03-22T13:49:13.040Z,36.88
2023-03-22T13:54:23.805Z,36.83
2023-03-22T13:59:31.448Z,36.65
2023-03-22T14:04:40.657Z,37.08
2023-03-22T14:09:47.803Z,36.95
2023-03-22T14:14:56.475Z,36.70
2023-03-22T14:20:02.028Z,36.92
